Time;durP1;ratioP1;P1;durP2;ratioP2;P2;SDS_P1;SDS_P2;PMS_P1;PMS_P2;Temp;Humidity;BMP_temperature;BMP_pressure;BME280_temperature;BME280_humidity;BME280_pressure;Samples;Min_cycle;Max_cycle;Signal;HPM_P1;HPM_P2
2022/08/10 00:02:26;;;;;;;1.10;0.75;;;;;;;;;;5058934;28;20070;-81
2022/08/10 00:04:52;;;;;;;1.38;0.70;;;;;;;;;;5092987;28;20016;-81
2022/08/10 00:07:18;;;;;;;6.65;0.90;;;;;;;;;;5093364;28;20035;-80
2022/08/10 00:09:44;;;;;;;0.90;0.65;;;;;;;;;;5093027;28;20024;-80
2022/08/10 00:12:10;;;;;;;1.25;0.70;;;;;;;;;;5092913;28;20153;-81
2022/08/10 00:14:36;;;;;;;3.33;0.80;;;;;;;;;;5093176;28;20527;-81
2022/08/10 00:17:02;;;;;;;1.42;0.82;;;;;;;;;;5092958;28;20491;-81
2022/08/10 00:19:28;;;;;;;1.25;0.90;;;;;;;;;;5092887;28;20149;-81
2022/08/10 00:21:54;;;;;;;3.70;0.77;;;;;;;;;;5092719;28;20149;-81
2022/08/10 00:24:20;;;;;;;2.78;0.80;;;;;;;;;;5092828;28;20058;-81
2022/08/10 00:26:46;;;;;;;1.85;0.90;;;;;;;;;;5074417;28;20024;-81
2022/08/10 00:29:12;;;;;;;1.00;0.90;;;;;;;;;;5093178;28;20063;-81
2022/08/10 00:31:38;;;;;;;1.40;1.02;;;;;;;;;;5092937;28;20029;-81
2022/08/10 00:34:04;;;;;;;1.58;0.80;;;;;;;;;;5092591;28;20028;-81
2022/08/10 00:36:30;;;;;;;2.95;0.80;;;;;;;;;;5092600;28;20028;-81
2022/08/10 00:38:56;;;;;;;2.70;1.00;;;;;;;;;;5092737;28;20013;-81
2022/08/10 00:41:22;;;;;;;3.35;0.98;;;;;;;;;;5074962;28;20469;-80
2022/08/10 00:43:48;;;;;;;1.30;1.00;;;;;;;;;;5093073;28;20458;-79
2022/08/10 00:46:14;;;;;;;1.50;0.80;;;;;;;;;;5096205;28;20032;-80
2022/08/10 00:48:40;;;;;;;0.90;0.65;;;;;;;;;;5096400;28;20035;-80
2022/08/10 00:51:06;;;;;;;1.40;0.88;;;;;;;;;;5096391;28;20073;-80
2022/08/10 00:53:33;;;;;;;3.92;0.90;;;;;;;;;;5096195;28;20048;-80
2022/08/10 00:55:59;;;;;;;1.70;1.00;;;;;;;;;;5103327;28;20028;-80
2022/08/10 00:58:25;;;;;;;2.70;1.00;;;;;;;;;;5115323;28;20020;-80
2022/08/10 01:00:51;;;;;;;3.40;0.90;;;;;;;;;;5116852;28;20062;-81
2022/08/10 01:03:17;;;;;;;2.58;1.20;;;;;;;;;;5116341;28;20055;-81
2022/08/10 01:06:00;;;;;;;3.17;1.10;;;;;;;;;;5116305;28;20023;-80
2022/08/10 01:08:26;;;;;;;2.53;1.30;;;;;;;;;;5116475;28;20058;-80
2022/08/10 01:11:10;;;;;;;4.85;1.00;;;;;;;;;;5116481;28;20026;-81
2022/08/10 01:13:54;;;;;;;3.13;1.35;;;;;;;;;;5116363;28;20031;-80
2022/08/10 01:16:25;;;;;;;1.92;1.10;;;;;;;;;;5116211;28;20110;-80
2022/08/10 01:19:00;;;;;;;3.47;1.13;;;;;;;;;;5116024;28;20103;-80
2022/08/10 01:21:32;;;;;;;2.45;1.25;;;;;;;;;;5116153;28;20077;-81
2022/08/10 01:24:17;;;;;;;1.67;1.10;;;;;;;;;;5116053;28;20055;-81
2022/08/10 01:27:01;;;;;;;5.28;1.30;;;;;;;;;;5115533;28;20054;-80
2022/08/10 01:29:46;;;;;;;5.60;1.40;;;;;;;;;;5113787;28;20118;-81
2022/08/10 01:32:13;;;;;;;6.10;1.30;;;;;;;;;;5115015;28;20028;-80
2022/08/10 01:34:48;;;;;;;3.05;1.00;;;;;;;;;;5115300;28;20031;-80
2022/08/10 01:37:16;;;;;;;2.10;1.00;;;;;;;;;;5114507;28;20107;-81
2022/08/10 01:39:46;;;;;;;1.63;1.20;;;;;;;;;;5095210;28;20039;-80
2022/08/10 01:42:14;;;;;;;2.45;1.20;;;;;;;;;;5095201;28;20028;-80
2022/08/10 01:44:44;;;;;;;2.38;1.40;;;;;;;;;;5077128;28;20059;-81
2022/08/10 01:50:04;;;;;;;2.33;1.25;;;;;;;;;;5095703;28;20480;-80
2022/08/10 01:52:30;;;;;;;1.70;1.15;;;;;;;;;;5094858;28;20209;-81
2022/08/10 01:54:57;;;;;;;1.75;1.25;;;;;;;;;;5076608;28;20389;-80
2022/08/10 01:57:25;;;;;;;2.78;1.35;;;;;;;;;;5095341;28;20046;-81
2022/08/10 01:59:52;;;;;;;4.80;1.55;;;;;;;;;;5095015;28;20118;-80
2022/08/10 02:02:19;;;;;;;4.22;1.23;;;;;;;;;;5094783;28;20458;-80
2022/08/10 02:04:47;;;;;;;2.72;1.40;;;;;;;;;;5094630;28;20032;-81
2022/08/10 02:07:16;;;;;;;1.98;1.10;;;;;;;;;;5076634;28;20362;-80
2022/08/10 02:09:45;;;;;;;1.48;1.30;;;;;;;;;;5076656;28;20034;-81
2022/08/10 02:12:13;;;;;;;2.13;1.60;;;;;;;;;;5096804;28;20031;-80
2022/08/10 02:14:42;;;;;;;2.40;1.70;;;;;;;;;;5115149;28;20027;-81
2022/08/10 02:17:11;;;;;;;3.80;1.50;;;;;;;;;;5115413;28;20031;-80
2022/08/10 02:19:39;;;;;;;8.63;1.55;;;;;;;;;;5114952;28;20141;-80
2022/08/10 02:22:06;;;;;;;2.90;2.00;;;;;;;;;;5096782;28;20031;-81
2022/08/10 02:24:33;;;;;;;3.13;2.00;;;;;;;;;;5114746;28;20015;-80
2022/08/10 02:27:00;;;;;;;2.67;1.90;;;;;;;;;;5114881;28;20020;-80
2022/08/10 02:29:26;;;;;;;8.50;2.13;;;;;;;;;;5114910;28;20070;-80
2022/08/10 02:31:54;;;;;;;2.85;2.10;;;;;;;;;;5114674;28;20069;-80
2022/08/10 02:34:20;;;;;;;3.75;1.80;;;;;;;;;;5114800;28;20015;-80
2022/08/10 02:36:49;;;;;;;3.05;1.85;;;;;;;;;;5113177;28;20390;-80
2022/08/10 02:39:16;;;;;;;3.33;2.33;;;;;;;;;;5114432;28;20031;-81
2022/08/10 02:41:45;;;;;;;2.33;1.60;;;;;;;;;;5114696;28;20077;-81
2022/08/10 02:44:22;;;;;;;3.63;2.00;;;;;;;;;;5114521;28;20023;-81
2022/08/10 02:46:51;;;;;;;3.47;2.00;;;;;;;;;;5114294;28;20019;-81
2022/08/10 02:49:20;;;;;;;5.72;2.50;;;;;;;;;;5114636;28;20031;-81
2022/08/10 02:51:50;;;;;;;3.42;2.55;;;;;;;;;;5113048;28;20032;-81
2022/08/10 02:54:20;;;;;;;3.65;1.98;;;;;;;;;;5114528;28;20031;-80
2022/08/10 02:56:53;;;;;;;4.43;2.28;;;;;;;;;;5101206;28;20078;-81
2022/08/10 02:59:29;;;;;;;2.55;1.90;;;;;;;;;;5093874;28;20044;-80
2022/08/10 03:01:57;;;;;;;4.05;2.65;;;;;;;;;;5075595;28;20350;-80
2022/08/10 03:04:25;;;;;;;3.00;2.60;;;;;;;;;;5093642;28;20016;-81
2022/08/10 03:07:03;;;;;;;3.85;2.50;;;;;;;;;;5093104;28;20027;-81
2022/08/10 03:09:31;;;;;;;5.35;2.50;;;;;;;;;;5093768;28;20036;-80
2022/08/10 03:11:58;;;;;;;4.50;2.33;;;;;;;;;;5075501;28;20028;-81
2022/08/10 03:14:24;;;;;;;3.03;2.30;;;;;;;;;;5093547;28;20374;-80
2022/08/10 03:16:52;;;;;;;3.88;2.65;;;;;;;;;;5093613;28;20104;-81
2022/08/10 03:19:19;;;;;;;4.13;2.67;;;;;;;;;;5075422;28;20020;-81
2022/08/10 03:21:46;;;;;;;4.18;3.17;;;;;;;;;;5075531;28;20486;-80
2022/08/10 03:24:12;;;;;;;4.50;3.00;;;;;;;;;;5093554;28;20016;-80
2022/08/10 03:26:39;;;;;;;4.05;2.92;;;;;;;;;;5075649;28;20031;-80
2022/08/10 03:29:05;;;;;;;4.30;2.63;;;;;;;;;;5093301;28;20028;-80
2022/08/10 03:31:32;;;;;;;6.13;3.20;;;;;;;;;;5093186;28;20028;-80
2022/08/10 03:34:00;;;;;;;4.88;3.40;;;;;;;;;;5093669;28;20374;-80
2022/08/10 03:36:26;;;;;;;6.28;3.65;;;;;;;;;;5093604;28;20531;-80
2022/08/10 03:38:52;;;;;;;4.70;3.47;;;;;;;;;;5107676;28;20441;-80
2022/08/10 03:41:24;;;;;;;4.88;3.17;;;;;;;;;;5113839;28;20020;-80
2022/08/10 03:43:51;;;;;;;5.40;2.95;;;;;;;;;;5113625;28;20039;-80
2022/08/10 03:46:18;;;;;;;8.30;3.58;;;;;;;;;;5113338;28;20434;-80
2022/08/10 03:48:45;;;;;;;7.90;3.58;;;;;;;;;;5113561;28;20099;-80
2022/08/10 03:51:12;;;;;;;5.55;3.60;;;;;;;;;;5112092;28;20039;-80
2022/08/10 03:53:39;;;;;;;9.82;3.85;;;;;;;;;;5113344;28;20088;-80
2022/08/10 03:56:05;;;;;;;5.07;3.72;;;;;;;;;;5112005;28;20020;-80
2022/08/10 03:58:31;;;;;;;10.40;3.60;;;;;;;;;;5113395;28;20048;-80
2022/08/10 04:00:58;;;;;;;4.68;3.70;;;;;;;;;;5113342;28;20012;-80
2022/08/10 04:03:24;;;;;;;5.88;3.88;;;;;;;;;;5113300;28;20027;-80
2022/08/10 04:05:50;;;;;;;6.55;4.45;;;;;;;;;;5113392;28;20031;-80
2022/08/10 04:08:16;;;;;;;11.20;5.47;;;;;;;;;;5112068;28;20024;-80
2022/08/10 04:10:42;;;;;;;7.80;4.40;;;;;;;;;;5113354;28;20020;-80
2022/08/10 04:13:08;;;;;;;6.55;4.35;;;;;;;;;;5113237;28;20132;-80
2022/08/10 04:15:34;;;;;;;6.85;4.70;;;;;;;;;;5113075;28;20061;-80
2022/08/10 04:18:00;;;;;;;8.88;5.22;;;;;;;;;;5113970;28;20057;-82
2022/08/10 04:20:30;;;;;;;9.13;5.05;;;;;;;;;;5116349;28;20023;-81
2022/08/10 04:22:57;;;;;;;9.00;5.00;;;;;;;;;;5117323;28;20023;-81
2022/08/10 04:25:24;;;;;;;8.27;4.88;;;;;;;;;;5117094;28;20050;-81
2022/08/10 04:27:50;;;;;;;9.07;4.75;;;;;;;;;;5115093;28;20090;-81
2022/08/10 04:30:17;;;;;;;7.82;4.80;;;;;;;;;;5116206;28;20023;-81
2022/08/10 04:32:45;;;;;;;8.02;5.20;;;;;;;;;;5114868;28;20023;-81
2022/08/10 04:35:11;;;;;;;7.63;5.55;;;;;;;;;;5116788;28;20362;-81
2022/08/10 04:37:39;;;;;;;9.05;5.57;;;;;;;;;;5116843;28;20024;-81
2022/08/10 04:40:05;;;;;;;7.80;5.40;;;;;;;;;;5116775;28;20023;-81
2022/08/10 04:42:31;;;;;;;8.25;5.53;;;;;;;;;;5116641;28;20390;-81
2022/08/10 04:44:57;;;;;;;10.73;5.47;;;;;;;;;;5114839;28;20475;-81
2022/08/10 04:47:23;;;;;;;10.18;5.90;;;;;;;;;;5116517;28;20101;-81
2022/08/10 04:49:49;;;;;;;8.05;5.70;;;;;;;;;;5117065;28;20092;-81
2022/08/10 04:52:16;;;;;;;13.43;5.78;;;;;;;;;;5116742;28;20056;-81
2022/08/10 04:54:42;;;;;;;11.13;6.15;;;;;;;;;;5116663;28;20020;-81
2022/08/10 04:57:08;;;;;;;12.95;6.53;;;;;;;;;;5116546;28;20031;-81
2022/08/10 04:59:34;;;;;;;10.23;6.13;;;;;;;;;;5116270;28;20044;-81
2022/08/10 05:02:00;;;;;;;9.77;6.00;;;;;;;;;;5116554;28;20094;-81
2022/08/10 05:04:26;;;;;;;8.77;6.30;;;;;;;;;;5116374;28;20054;-81
2022/08/10 05:06:52;;;;;;;8.77;5.57;;;;;;;;;;5116569;28;20020;-81
2022/08/10 05:09:18;;;;;;;8.55;6.40;;;;;;;;;;5116353;28;20015;-81
2022/08/10 05:11:44;;;;;;;11.20;6.88;;;;;;;;;;5116942;28;20019;-81
2022/08/10 05:14:10;;;;;;;12.25;6.38;;;;;;;;;;5116193;28;20077;-81
2022/08/10 05:16:36;;;;;;;10.73;6.40;;;;;;;;;;5116162;28;20027;-81
2022/08/10 05:19:02;;;;;;;10.00;6.10;;;;;;;;;;5114928;28;20032;-79
2022/08/10 05:21:28;;;;;;;15.30;6.43;;;;;;;;;;5115239;28;20026;-80
2022/08/10 05:23:54;;;;;;;9.15;5.72;;;;;;;;;;5114896;28;20015;-79
2022/08/10 05:26:20;;;;;;;7.75;5.57;;;;;;;;;;5116164;28;20449;-80
2022/08/10 05:28:46;;;;;;;9.50;5.90;;;;;;;;;;5115989;28;20039;-79
2022/08/10 05:31:12;;;;;;;10.38;6.80;;;;;;;;;;5114147;28;20073;-79
2022/08/10 05:33:38;;;;;;;10.07;5.85;;;;;;;;;;5116164;28;20024;-79
2022/08/10 05:36:05;;;;;;;8.77;6.22;;;;;;;;;;5115821;28;20032;-79
2022/08/10 05:38:32;;;;;;;10.52;6.28;;;;;;;;;;5116236;28;20028;-79
2022/08/10 05:40:59;;;;;;;12.13;6.65;;;;;;;;;;5116204;28;20020;-80
2022/08/10 05:43:25;;;;;;;10.00;6.40;;;;;;;;;;5116059;28;20027;-80
2022/08/10 05:45:52;;;;;;;11.05;6.97;;;;;;;;;;5114559;28;20020;-80
2022/08/10 05:48:18;;;;;;;9.93;6.22;;;;;;;;;;5115827;28;20020;-77
2022/08/10 05:50:44;;;;;;;13.25;6.78;;;;;;;;;;5114431;28;20066;-79
2022/08/10 05:53:10;;;;;;;11.15;6.25;;;;;;;;;;5115604;28;20071;-80
2022/08/10 05:55:36;;;;;;;10.40;6.65;;;;;;;;;;5115778;28;20020;-78
2022/08/10 05:58:02;;;;;;;10.38;6.47;;;;;;;;;;5115678;28;20345;-79
2022/08/10 06:00:29;;;;;;;10.95;6.28;;;;;;;;;;5096919;28;20110;-78
2022/08/10 06:02:58;;;;;;;15.32;7.47;;;;;;;;;;5112941;28;20020;-80
2022/08/10 06:05:26;;;;;;;12.18;6.75;;;;;;;;;;5115508;28;20023;-80
2022/08/10 06:07:59;;;;;;;9.40;5.85;;;;;;;;;;5097056;28;20027;-80
2022/08/10 06:10:27;;;;;;;13.02;6.35;;;;;;;;;;5097359;28;20024;-81
2022/08/10 06:15:39;;;;;;;13.85;6.45;;;;;;;;;;5115190;28;20080;-81
2022/08/10 06:18:06;;;;;;;10.50;5.93;;;;;;;;;;5114948;28;20016;-81
2022/08/10 06:20:32;;;;;;;12.52;6.38;;;;;;;;;;5115133;28;20024;-81
2022/08/10 06:23:00;;;;;;;9.73;5.70;;;;;;;;;;5114858;28;20016;-81
2022/08/10 06:25:26;;;;;;;8.90;5.75;;;;;;;;;;5114986;28;20058;-82
2022/08/10 06:27:54;;;;;;;10.35;6.30;;;;;;;;;;5114939;28;20485;-81
2022/08/10 06:30:20;;;;;;;8.68;5.13;;;;;;;;;;5114973;28;20020;-81
2022/08/10 06:32:47;;;;;;;12.52;5.63;;;;;;;;;;5114602;28;20019;-81
2022/08/10 06:35:14;;;;;;;8.13;5.80;;;;;;;;;;5115261;28;20031;-82
2022/08/10 06:37:40;;;;;;;8.85;5.45;;;;;;;;;;5096299;28;20024;-82
2022/08/10 06:40:07;;;;;;;8.40;4.72;;;;;;;;;;5096511;28;20024;-81
2022/08/10 06:42:35;;;;;;;8.63;5.50;;;;;;;;;;5095257;28;20019;-81
2022/08/10 06:45:16;;;;;;;8.98;4.93;;;;;;;;;;5096134;28;20020;-81
2022/08/10 06:47:55;;;;;;;9.15;4.88;;;;;;;;;;5096171;28;20047;-81
2022/08/10 06:50:23;;;;;;;9.02;5.38;;;;;;;;;;5096300;28;20115;-81
2022/08/10 06:52:50;;;;;;;7.07;4.53;;;;;;;;;;5114177;28;20112;-81
2022/08/10 06:55:16;;;;;;;9.98;4.43;;;;;;;;;;5095988;28;20027;-81
2022/08/10 06:57:43;;;;;;;8.07;4.47;;;;;;;;;;5112042;28;20019;-85
2022/08/10 07:00:11;;;;;;;7.90;4.32;;;;;;;;;;5095923;28;20027;-83
2022/08/10 07:02:50;;;;;;;8.70;4.35;;;;;;;;;;5096456;28;20461;-83
2022/08/10 07:05:20;;;;;;;7.65;3.78;;;;;;;;;;5096471;28;20023;-83
2022/08/10 07:07:47;;;;;;;7.07;3.70;;;;;;;;;;5095802;28;20163;-82
2022/08/10 07:10:15;;;;;;;7.10;3.58;;;;;;;;;;5095879;28;20143;-82
2022/08/10 07:12:42;;;;;;;5.43;3.67;;;;;;;;;;5095714;28;20031;-82
2022/08/10 07:15:11;;;;;;;4.43;3.55;;;;;;;;;;5113788;28;20020;-82
2022/08/10 07:17:38;;;;;;;11.00;4.07;;;;;;;;;;5113835;28;20116;-82
2022/08/10 07:20:05;;;;;;;4.13;2.80;;;;;;;;;;5113933;28;20486;-82
2022/08/10 07:22:34;;;;;;;5.85;3.38;;;;;;;;;;5095576;28;20069;-81
2022/08/10 07:25:01;;;;;;;8.02;3.40;;;;;;;;;;5095720;28;20024;-82
2022/08/10 07:27:28;;;;;;;5.00;3.30;;;;;;;;;;5113847;28;20030;-82
2022/08/10 07:29:54;;;;;;;7.85;2.50;;;;;;;;;;5113770;28;20156;-78
2022/08/10 07:32:21;;;;;;;5.18;3.03;;;;;;;;;;5114028;28;20020;-81
2022/08/10 07:34:48;;;;;;;6.28;2.88;;;;;;;;;;5113669;28;20024;-78
2022/08/10 07:37:15;;;;;;;7.97;2.88;;;;;;;;;;5094607;28;20020;-80
2022/08/10 07:39:46;;;;;;;4.68;2.50;;;;;;;;;;5093528;28;20055;-80
2022/08/10 07:42:13;;;;;;;4.63;2.70;;;;;;;;;;5093371;28;20012;-80
2022/08/10 07:44:40;;;;;;;4.22;2.42;;;;;;;;;;5075287;28;20020;-79
2022/08/10 07:47:08;;;;;;;4.40;2.38;;;;;;;;;;5093363;28;20484;-80
2022/08/10 07:49:36;;;;;;;3.28;2.15;;;;;;;;;;5093725;28;20042;-80
2022/08/10 07:52:05;;;;;;;5.78;2.13;;;;;;;;;;5102129;28;20121;-79
2022/08/10 07:54:34;;;;;;;6.03;3.15;;;;;;;;;;5092819;28;20092;-83
2022/08/10 07:57:02;;;;;;;6.07;2.00;;;;;;;;;;5093072;28;20028;-80
2022/08/10 07:59:36;;;;;;;7.35;2.05;;;;;;;;;;5110920;28;20076;-79
2022/08/10 08:02:02;;;;;;;9.88;2.25;;;;;;;;;;5113732;28;20023;-81
2022/08/10 08:04:29;;;;;;;3.75;1.83;;;;;;;;;;5094990;28;20442;-80
2022/08/10 08:06:58;;;;;;;5.93;1.60;;;;;;;;;;5113416;28;20107;-80
2022/08/10 08:09:25;;;;;;;6.07;2.35;;;;;;;;;;5095392;28;20214;-80
2022/08/10 08:11:52;;;;;;;4.03;1.88;;;;;;;;;;5095121;28;20119;-80
2022/08/10 08:14:18;;;;;;;4.25;1.92;;;;;;;;;;5113684;28;20465;-80
2022/08/10 08:16:46;;;;;;;2.85;1.52;;;;;;;;;;5113475;28;20019;-80
2022/08/10 08:19:13;;;;;;;2.70;1.77;;;;;;;;;;5113576;28;20020;-80
2022/08/10 08:21:40;;;;;;;5.90;2.15;;;;;;;;;;5113269;28;20485;-80
2022/08/10 08:24:06;;;;;;;11.25;2.05;;;;;;;;;;5113075;28;20073;-76
2022/08/10 08:26:32;;;;;;;8.88;1.80;;;;;;;;;;5113273;28;20028;-80
2022/08/10 08:28:59;;;;;;;5.20;1.65;;;;;;;;;;5113510;28;20520;-80
2022/08/10 08:31:25;;;;;;;8.65;1.67;;;;;;;;;;5094829;28;20032;-79
2022/08/10 08:33:52;;;;;;;4.78;1.45;;;;;;;;;;5094993;28;20024;-79
2022/08/10 08:36:19;;;;;;;4.25;1.80;;;;;;;;;;5113067;28;20073;-79
2022/08/10 08:38:46;;;;;;;4.78;1.60;;;;;;;;;;5113095;28;20021;-79
2022/08/10 08:41:51;;;;;;;9.65;2.33;;;;;;;;;;5113145;28;20476;-79
2022/08/10 08:44:25;;;;;;;5.82;1.70;;;;;;;;;;4993928;28;20492;-80
2022/08/10 08:47:01;;;;;;;8.40;1.30;;;;;;;;;;5100700;28;20039;-79
2022/08/10 08:49:38;;;;;;;15.77;1.65;;;;;;;;;;5113356;28;20076;-79
2022/08/10 08:52:04;;;;;;;3.03;1.55;;;;;;;;;;5113089;28;20039;-79
2022/08/10 08:54:49;;;;;;;5.25;1.42;;;;;;;;;;5094890;28;20020;-79
2022/08/10 08:57:19;;;;;;;10.40;1.25;;;;;;;;;;5112849;28;20024;-79
2022/08/10 08:59:56;;;;;;;6.82;1.50;;;;;;;;;;5111884;28;20024;-79
2022/08/10 09:02:31;;;;;;;5.55;1.33;;;;;;;;;;5112997;28;20168;-79
2022/08/10 09:05:01;;;;;;;3.15;1.20;;;;;;;;;;5113699;28;20035;-79
2022/08/10 09:07:30;;;;;;;4.70;1.60;;;;;;;;;;5118143;28;20124;-79
2022/08/10 09:09:56;;;;;;;4.20;1.48;;;;;;;;;;5098785;28;20476;-79
2022/08/10 09:12:32;;;;;;;6.75;1.60;;;;;;;;;;5117943;28;20028;-78
2022/08/10 09:15:02;;;;;;;5.40;1.33;;;;;;;;;;5117933;28;20429;-78
2022/08/10 09:17:43;;;;;;;2.85;1.05;;;;;;;;;;5099229;28;20032;-78
2022/08/10 09:20:33;;;;;;;2.83;1.17;;;;;;;;;;5118343;28;20072;-78
2022/08/10 09:23:35;;;;;;;3.40;1.00;;;;;;;;;;5075592;28;20046;-78
2022/08/10 09:26:11;;;;;;;6.32;1.23;;;;;;;;;;5031416;28;20029;-77
2022/08/10 09:28:39;;;;;;;3.60;1.00;;;;;;;;;;5101546;28;20070;-78
2022/08/10 09:31:09;;;;;;;3.00;1.10;;;;;;;;;;5117405;28;20016;-78
2022/08/10 09:33:47;;;;;;;3.70;1.45;;;;;;;;;;5110605;28;20106;-78
2022/08/10 09:36:22;;;;;;;2.22;1.20;;;;;;;;;;5098086;28;20059;-78
2022/08/10 09:38:58;;;;;;;2.63;0.95;;;;;;;;;;5114351;28;20214;-78
2022/08/10 09:41:39;;;;;;;5.10;1.25;;;;;;;;;;5118429;28;20023;-78
2022/08/10 09:44:08;;;;;;;7.47;0.82;;;;;;;;;;5113284;28;20447;-80
2022/08/10 09:46:37;;;;;;;2.95;1.13;;;;;;;;;;5099667;28;20030;-83
2022/08/10 09:49:19;;;;;;;2.85;1.10;;;;;;;;;;5099656;28;20023;-80
2022/08/10 09:51:54;;;;;;;6.00;1.08;;;;;;;;;;5116887;28;20085;-79
2022/08/10 09:54:42;;;;;;;4.55;1.10;;;;;;;;;;5116799;28;20077;-80
2022/08/10 09:57:15;;;;;;;3.45;0.70;;;;;;;;;;5097966;28;20115;-78
2022/08/10 10:00:00;;;;;;;2.03;1.00;;;;;;;;;;5116856;28;20069;-79
2022/08/10 10:02:47;;;;;;;2.33;0.82;;;;;;;;;;5115836;28;20504;-79
2022/08/10 10:05:32;;;;;;;3.90;0.70;;;;;;;;;;5100007;28;20027;-79
2022/08/10 10:08:07;;;;;;;2.70;0.75;;;;;;;;;;5118025;28;20047;-79
2022/08/10 10:10:38;;;;;;;3.55;0.73;;;;;;;;;;5094161;28;20019;-83
2022/08/10 10:13:09;;;;;;;1.48;0.70;;;;;;;;;;5100538;28;20036;-83
2022/08/10 10:15:52;;;;;;;3.13;0.70;;;;;;;;;;5116361;28;20032;-83
2022/08/10 10:18:18;;;;;;;4.22;0.90;;;;;;;;;;5117878;28;20089;-84
2022/08/10 10:20:45;;;;;;;6.50;0.90;;;;;;;;;;5117812;28;20045;-84
2022/08/10 10:23:20;;;;;;;2.35;1.00;;;;;;;;;;5117036;28;20111;-82
2022/08/10 10:26:05;;;;;;;2.35;0.73;;;;;;;;;;5097911;28;20032;-83
2022/08/10 10:28:50;;;;;;;2.45;1.13;;;;;;;;;;5097483;28;20030;-83
2022/08/10 10:31:22;;;;;;;2.28;0.80;;;;;;;;;;5114192;28;20520;-83
2022/08/10 10:34:13;;;;;;;3.15;0.77;;;;;;;;;;5115792;28;20023;-83
2022/08/10 10:36:43;;;;;;;4.20;1.10;;;;;;;;;;5114159;28;20024;-84
2022/08/10 10:39:12;;;;;;;1.88;1.05;;;;;;;;;;5117592;28;20102;-81
2022/08/10 10:42:06;;;;;;;8.32;1.23;;;;;;;;;;5116276;28;20030;-81
2022/08/10 10:44:32;;;;;;;1.52;0.80;;;;;;;;;;5108728;28;20462;-83
2022/08/10 10:46:58;;;;;;;2.78;0.93;;;;;;;;;;5118018;28;20019;-83
2022/08/10 10:49:25;;;;;;;3.72;0.90;;;;;;;;;;5117996;28;20039;-83
2022/08/10 10:51:54;;;;;;;2.60;1.00;;;;;;;;;;5117574;28;20032;-83
2022/08/10 10:54:28;;;;;;;4.13;1.00;;;;;;;;;;5117294;28;20024;-83
2022/08/10 10:56:54;;;;;;;1.23;0.80;;;;;;;;;;5112972;28;20027;-84
2022/08/10 10:59:30;;;;;;;1.73;0.85;;;;;;;;;;5098609;28;20011;-83
2022/08/10 11:02:08;;;;;;;4.53;0.90;;;;;;;;;;5116540;28;20030;-84
2022/08/10 11:04:40;;;;;;;2.97;0.93;;;;;;;;;;5116036;28;20491;-84
2022/08/10 11:07:16;;;;;;;2.92;0.82;;;;;;;;;;5116204;28;20038;-84
2022/08/10 11:09:45;;;;;;;1.77;1.02;;;;;;;;;;5115799;28;20040;-84
2022/08/10 11:12:25;;;;;;;2.63;0.80;;;;;;;;;;5115801;28;20472;-84
2022/08/10 11:15:04;;;;;;;2.38;0.95;;;;;;;;;;5116745;28;20055;-83
2022/08/10 11:17:33;;;;;;;2.53;0.90;;;;;;;;;;5127070;27;20026;-83
2022/08/10 11:20:12;;;;;;;9.13;1.00;;;;;;;;;;5116090;28;20023;-84
2022/08/10 11:23:02;;;;;;;5.05;0.93;;;;;;;;;;5117737;28;20012;-85
2022/08/10 11:25:30;;;;;;;2.15;1.02;;;;;;;;;;5116387;28;20069;-83
2022/08/10 11:28:15;;;;;;;3.75;1.10;;;;;;;;;;5091627;28;20765;-84
2022/08/10 11:30:58;;;;;;;2.05;1.00;;;;;;;;;;5093948;28;20028;-82
2022/08/10 11:33:24;;;;;;;3.22;0.93;;;;;;;;;;5095979;28;20119;-82
2022/08/10 11:35:53;;;;;;;6.60;0.80;;;;;;;;;;5114437;28;20059;-82
2022/08/10 11:38:25;;;;;;;3.80;0.93;;;;;;;;;;5114542;28;20546;-83
2022/08/10 11:41:10;;;;;;;1.88;0.80;;;;;;;;;;5113159;28;20110;-82
2022/08/10 11:43:39;;;;;;;2.97;0.85;;;;;;;;;;5094263;28;20381;-83
2022/08/10 11:46:11;;;;;;;2.65;0.73;;;;;;;;;;5094097;28;20012;-83
2022/08/10 11:48:48;;;;;;;3.65;0.82;;;;;;;;;;5102533;28;20029;-82
2022/08/10 11:51:20;;;;;;;2.25;0.80;;;;;;;;;;5114099;28;20464;-83
2022/08/10 11:53:55;;;;;;;1.67;0.73;;;;;;;;;;5093894;28;20385;-82
2022/08/10 11:56:29;;;;;;;2.53;0.80;;;;;;;;;;5094218;28;20055;-82
2022/08/10 12:01:41;;;;;;;1.30;0.68;;;;;;;;;;5114341;28;20030;-85
2022/08/10 12:04:08;;;;;;;1.63;0.90;;;;;;;;;;5113028;28;20015;-83
2022/08/10 12:06:36;;;;;;;2.60;0.80;;;;;;;;;;5107796;28;20461;-83
2022/08/10 12:09:04;;;;;;;1.20;0.70;;;;;;;;;;5113785;28;20030;-83
2022/08/10 12:11:30;;;;;;;6.75;1.05;;;;;;;;;;5113809;28;20043;-84
2022/08/10 12:14:00;;;;;;;3.45;1.10;;;;;;;;;;5114254;28;20035;-83
2022/08/10 12:16:28;;;;;;;1.63;0.80;;;;;;;;;;5108493;28;20423;-84
2022/08/10 12:19:01;;;;;;;2.17;0.80;;;;;;;;;;5114698;28;20094;-83
2022/08/10 12:21:47;;;;;;;3.50;0.85;;;;;;;;;;5113868;28;20021;-84
2022/08/10 12:24:22;;;;;;;3.15;0.90;;;;;;;;;;5108461;28;20462;-82
2022/08/10 12:27:02;;;;;;;2.45;0.80;;;;;;;;;;5109131;28;20038;-82
2022/08/10 12:30:07;;;;;;;2.08;0.70;;;;;;;;;;5114712;28;20376;-82
2022/08/10 12:32:50;;;;;;;0.57;0.57;;;;;;;;;;5033662;28;20124;-82
2022/08/10 12:35:27;;;;;;;2.00;0.82;;;;;;;;;;5033471;28;20045;-82
2022/08/10 12:38:04;;;;;;;1.90;1.27;;;;;;;;;;5072103;28;20504;-83
2022/08/10 12:40:32;;;;;;;0.98;0.60;;;;;;;;;;5116466;28;20028;-82
2022/08/10 12:43:11;;;;;;;13.73;1.15;;;;;;;;;;5117641;28;20080;-84
2022/08/10 12:45:50;;;;;;;1.95;0.70;;;;;;;;;;5117984;28;20031;-86
2022/08/10 12:48:20;;;;;;;1.00;0.63;;;;;;;;;;5099941;28;20019;-83
2022/08/10 12:50:49;;;;;;;4.20;0.98;;;;;;;;;;5118716;28;20086;-83
2022/08/10 12:53:25;;;;;;;4.05;0.80;;;;;;;;;;5119586;28;20093;-83
2022/08/10 12:55:51;;;;;;;4.22;1.02;;;;;;;;;;5117333;28;20011;-83
2022/08/10 12:58:18;;;;;;;1.05;0.80;;;;;;;;;;5119367;28;20054;-83
2022/08/10 13:00:45;;;;;;;2.13;0.88;;;;;;;;;;5119416;28;20011;-81
2022/08/10 13:03:12;;;;;;;2.65;0.77;;;;;;;;;;5117636;28;20398;-80
2022/08/10 13:05:39;;;;;;;2.65;0.90;;;;;;;;;;5118050;28;20020;-81
2022/08/10 13:11:11;;;;;;;2.83;0.73;;;;;;;;;;5118261;28;20107;-81
2022/08/10 13:13:38;;;;;;;1.20;0.73;;;;;;;;;;5116844;28;20019;-82
2022/08/10 13:16:05;;;;;;;3.42;0.80;;;;;;;;;;5098398;28;20028;-81
2022/08/10 13:18:36;;;;;;;1.10;0.60;;;;;;;;;;5116741;28;20084;-81
2022/08/10 13:21:04;;;;;;;11.90;0.90;;;;;;;;;;5116843;28;20019;-81
2022/08/10 13:23:32;;;;;;;3.55;0.80;;;;;;;;;;5116321;28;20037;-81
2022/08/10 13:26:00;;;;;;;3.10;0.95;;;;;;;;;;5098263;28;20020;-82
2022/08/10 13:28:35;;;;;;;1.83;0.80;;;;;;;;;;5116665;28;20415;-81
2022/08/10 13:31:02;;;;;;;1.42;1.00;;;;;;;;;;5112977;28;20024;-80
2022/08/10 13:33:30;;;;;;;1.13;0.80;;;;;;;;;;5116682;28;20031;-81
2022/08/10 13:35:57;;;;;;;4.78;0.90;;;;;;;;;;5116470;28;20020;-81
2022/08/10 13:38:24;;;;;;;1.50;0.90;;;;;;;;;;5116348;28;20107;-81
2022/08/10 13:40:51;;;;;;;5.60;1.00;;;;;;;;;;5116215;28;20024;-81
2022/08/10 13:43:19;;;;;;;2.97;0.63;;;;;;;;;;5116171;28;20099;-81
2022/08/10 13:45:45;;;;;;;5.43;1.00;;;;;;;;;;5116092;28;20061;-81
2022/08/10 13:48:24;;;;;;;3.15;0.80;;;;;;;;;;5115963;28;20020;-82
2022/08/10 13:50:52;;;;;;;3.20;0.88;;;;;;;;;;5095724;28;20027;-82
2022/08/10 13:53:18;;;;;;;1.73;0.80;;;;;;;;;;5105652;28;20143;-82
2022/08/10 13:55:46;;;;;;;2.63;0.70;;;;;;;;;;5115452;28;20518;-83
2022/08/10 13:58:13;;;;;;;1.42;0.90;;;;;;;;;;5097740;28;20389;-82
2022/08/10 14:00:40;;;;;;;2.03;0.80;;;;;;;;;;5116236;28;20020;-83
2022/08/10 14:03:14;;;;;;;2.30;0.85;;;;;;;;;;5115963;28;20024;-83
2022/08/10 14:05:42;;;;;;;1.77;0.80;;;;;;;;;;5115976;28;20085;-80
2022/08/10 14:08:13;;;;;;;2.58;0.90;;;;;;;;;;5116114;28;20084;-81
2022/08/10 14:10:40;;;;;;;1.85;0.80;;;;;;;;;;5116268;28;20019;-81
2022/08/10 14:13:07;;;;;;;2.42;1.10;;;;;;;;;;5115230;28;20098;-81
2022/08/10 14:15:33;;;;;;;4.70;1.27;;;;;;;;;;5115769;28;20378;-81
2022/08/10 14:18:01;;;;;;;3.92;1.38;;;;;;;;;;5115145;28;20876;-81
2022/08/10 14:20:28;;;;;;;2.53;1.05;;;;;;;;;;5115520;28;20065;-81
2022/08/10 14:23:04;;;;;;;1.83;0.90;;;;;;;;;;5115267;28;20027;-81
2022/08/10 14:25:44;;;;;;;2.55;0.90;;;;;;;;;;5076156;28;20023;-81
2022/08/10 14:28:10;;;;;;;3.40;1.00;;;;;;;;;;5095215;28;20024;-82
2022/08/10 14:30:37;;;;;;;4.78;0.90;;;;;;;;;;5094968;28;20028;-81
2022/08/10 14:33:04;;;;;;;6.43;0.85;;;;;;;;;;5095230;28;20028;-81
2022/08/10 14:35:32;;;;;;;4.43;0.90;;;;;;;;;;5095503;28;20024;-81
2022/08/10 14:38:05;;;;;;;3.22;0.60;;;;;;;;;;5095084;28;20024;-82
2022/08/10 14:40:39;;;;;;;4.63;0.85;;;;;;;;;;5094951;28;20416;-82
2022/08/10 14:43:06;;;;;;;2.00;0.90;;;;;;;;;;5094771;28;20024;-81
2022/08/10 14:45:34;;;;;;;1.23;0.65;;;;;;;;;;5095042;28;20102;-82
2022/08/10 14:48:06;;;;;;;2.95;1.05;;;;;;;;;;5094868;28;20446;-81
2022/08/10 14:50:33;;;;;;;3.10;0.85;;;;;;;;;;5094896;28;20500;-81
2022/08/10 14:53:18;;;;;;;2.45;0.98;;;;;;;;;;5094538;28;20131;-81
2022/08/10 14:55:51;;;;;;;3.38;1.05;;;;;;;;;;5099247;28;20138;-82
2022/08/10 14:58:20;;;;;;;2.17;0.90;;;;;;;;;;5114096;28;20028;-81
2022/08/10 15:00:49;;;;;;;1.67;0.85;;;;;;;;;;5115068;28;20096;-81
2022/08/10 15:03:16;;;;;;;1.33;0.77;;;;;;;;;;5114399;28;20016;-80
2022/08/10 15:05:43;;;;;;;3.08;1.02;;;;;;;;;;5113882;28;20020;-80
2022/08/10 15:08:09;;;;;;;3.53;1.17;;;;;;;;;;5113952;28;20496;-83
2022/08/10 15:10:36;;;;;;;5.43;1.05;;;;;;;;;;5097482;28;20098;-83